sensor_id;sensor_type;location;lat;lon;timestamp;temperature;humidity
12452;DHT22;6291;48.924;12.204;2022-11-15T00:01:16;5.00;99.90
12452;DHT22;6291;48.924;12.204;2022-11-15T00:06:39;4.90;99.90
12452;DHT22;6291;48.924;12.204;2022-11-15T00:12:02;4.70;99.90
12452;DHT22;6291;48.924;12.204;2022-11-15T00:17:24;4.70;99.90
12452;DHT22;6291;48.924;12.204;2022-11-15T00:22:45;4.80;99.90
12452;DHT22;6291;48.924;12.204;2022-11-15T00:28:09;4.90;99.90
12452;DHT22;6291;48.924;12.204;2022-11-15T00:33:31;4.80;99.90
12452;DHT22;6291;48.924;12.204;2022-11-15T00:38:53;5.00;99.90
12452;DHT22;6291;48.924;12.204;2022-11-15T00:44:16;5.00;99.90
12452;DHT22;6291;48.924;12.204;2022-11-15T00:49:38;5.10;99.90
12452;DHT22;6291;48.924;12.204;2022-11-15T00:55:02;5.20;99.90
12452;DHT22;6291;48.924;12.204;2022-11-15T01:00:25;5.00;99.90
12452;DHT22;6291;48.924;12.204;2022-11-15T01:05:46;5.00;99.90
12452;DHT22;6291;48.924;12.204;2022-11-15T01:11:10;4.90;99.90
12452;DHT22;6291;48.924;12.204;2022-11-15T01:16:33;4.70;99.90
12452;DHT22;6291;48.924;12.204;2022-11-15T01:21:55;4.60;99.90
12452;DHT22;6291;48.924;12.204;2022-11-15T01:27:17;4.60;99.90
12452;DHT22;6291;48.924;12.204;2022-11-15T01:32:41;4.60;99.90
12452;DHT22;6291;48.924;12.204;2022-11-15T01:38:03;4.40;99.90
12452;DHT22;6291;48.924;12.204;2022-11-15T01:43:26;4.50;99.90
12452;DHT22;6291;48.924;12.204;2022-11-15T01:48:52;4.40;99.90
12452;DHT22;6291;48.924;12.204;2022-11-15T01:54:17;4.20;99.90
12452;DHT22;6291;48.924;12.204;2022-11-15T01:59:43;4.20;99.90
12452;DHT22;6291;48.924;12.204;2022-11-15T02:05:07;4.20;99.90
12452;DHT22;6291;48.924;12.204;2022-11-15T02:10:29;4.30;99.90
12452;DHT22;6291;48.924;12.204;2022-11-15T02:15:58;4.30;99.90
12452;DHT22;6291;48.924;12.204;2022-11-15T02:21:31;4.30;99.90
12452;DHT22;6291;48.924;12.204;2022-11-15T02:33:08;4.20;99.90
12452;DHT22;6291;48.924;12.204;2022-11-15T02:38:38;4.00;99.90
12452;DHT22;6291;48.924;12.204;2022-11-15T02:44:06;4.00;99.90
12452;DHT22;6291;48.924;12.204;2022-11-15T02:49:33;4.10;99.90
12452;DHT22;6291;48.924;12.204;2022-11-15T02:54:56;4.00;99.90
12452;DHT22;6291;48.924;12.204;2022-11-15T03:00:19;4.10;99.90
12452;DHT22;6291;48.924;12.204;2022-11-15T03:05:49;4.00;99.90
12452;DHT22;6291;48.924;12.204;2022-11-15T03:11:15;3.90;99.90
12452;DHT22;6291;48.924;12.204;2022-11-15T03:16:41;3.80;99.90
12452;DHT22;6291;48.924;12.204;2022-11-15T03:22:06;3.60;99.90
12452;DHT22;6291;48.924;12.204;2022-11-15T03:27:34;3.90;99.90
12452;DHT22;6291;48.924;12.204;2022-11-15T03:32:58;3.90;99.90
12452;DHT22;6291;48.924;12.204;2022-11-15T03:38:25;3.80;99.90
12452;DHT22;6291;48.924;12.204;2022-11-15T03:43:52;3.50;99.90
12452;DHT22;6291;48.924;12.204;2022-11-15T03:49:19;3.40;99.90
12452;DHT22;6291;48.924;12.204;2022-11-15T03:54:53;3.30;99.90
12452;DHT22;6291;48.924;12.204;2022-11-15T04:00:15;-1.10;99.90
12452;DHT22;6291;48.924;12.204;2022-11-15T04:05:37;2.80;99.90
12452;DHT22;6291;48.924;12.204;2022-11-15T04:11:01;2.80;99.90
12452;DHT22;6291;48.924;12.204;2022-11-15T04:16:23;3.30;99.90
12452;DHT22;6291;48.924;12.204;2022-11-15T04:21:44;2.80;99.90
12452;DHT22;6291;48.924;12.204;2022-11-15T04:27:25;3.00;99.90
12452;DHT22;6291;48.924;12.204;2022-11-15T04:32:47;2.90;99.90
12452;DHT22;6291;48.924;12.204;2022-11-15T04:38:10;3.00;99.90
12452;DHT22;6291;48.924;12.204;2022-11-15T04:43:33;2.90;99.90
12452;DHT22;6291;48.924;12.204;2022-11-15T04:48:56;2.80;99.90
12452;DHT22;6291;48.924;12.204;2022-11-15T04:54:18;2.70;99.90
12452;DHT22;6291;48.924;12.204;2022-11-15T04:59:41;2.60;99.90
12452;DHT22;6291;48.924;12.204;2022-11-15T05:05:04;2.50;99.90
12452;DHT22;6291;48.924;12.204;2022-11-15T05:10:26;2.40;99.90
12452;DHT22;6291;48.924;12.204;2022-11-15T05:15:49;2.40;99.90
12452;DHT22;6291;48.924;12.204;2022-11-15T05:21:13;2.40;99.90
12452;DHT22;6291;48.924;12.204;2022-11-15T05:26:35;2.10;99.90
12452;DHT22;6291;48.924;12.204;2022-11-15T05:31:59;2.10;99.90
12452;DHT22;6291;48.924;12.204;2022-11-15T05:37:21;2.10;99.90
12452;DHT22;6291;48.924;12.204;2022-11-15T05:42:42;2.20;99.90
12452;DHT22;6291;48.924;12.204;2022-11-15T05:48:07;2.30;99.90
12452;DHT22;6291;48.924;12.204;2022-11-15T05:53:31;2.50;99.90
12452;DHT22;6291;48.924;12.204;2022-11-15T05:58:55;2.50;99.90
12452;DHT22;6291;48.924;12.204;2022-11-15T06:04:21;2.50;99.90
12452;DHT22;6291;48.924;12.204;2022-11-15T06:09:43;2.50;99.90
12452;DHT22;6291;48.924;12.204;2022-11-15T06:15:05;2.50;99.90
12452;DHT22;6291;48.924;12.204;2022-11-15T06:20:29;2.70;99.90
12452;DHT22;6291;48.924;12.204;2022-11-15T06:25:51;2.70;99.90
12452;DHT22;6291;48.924;12.204;2022-11-15T06:31:13;2.70;99.90
12452;DHT22;6291;48.924;12.204;2022-11-15T06:36:36;3.00;99.90
12452;DHT22;6291;48.924;12.204;2022-11-15T06:41:58;3.00;99.90
12452;DHT22;6291;48.924;12.204;2022-11-15T06:47:20;3.00;99.90
12452;DHT22;6291;48.924;12.204;2022-11-15T06:52:43;2.70;99.90
12452;DHT22;6291;48.924;12.204;2022-11-15T06:58:05;2.80;99.90
12452;DHT22;6291;48.924;12.204;2022-11-15T07:03:26;2.60;99.90
12452;DHT22;6291;48.924;12.204;2022-11-15T07:08:50;2.40;99.90
12452;DHT22;6291;48.924;12.204;2022-11-15T07:14:12;2.60;99.90
12452;DHT22;6291;48.924;12.204;2022-11-15T07:19:35;2.60;99.90
12452;DHT22;6291;48.924;12.204;2022-11-15T07:24:58;2.80;99.90
12452;DHT22;6291;48.924;12.204;2022-11-15T07:30:20;3.30;99.90
12452;DHT22;6291;48.924;12.204;2022-11-15T07:35:41;3.90;99.90
12452;DHT22;6291;48.924;12.204;2022-11-15T07:41:08;3.40;99.90
12452;DHT22;6291;48.924;12.204;2022-11-15T07:46:31;3.70;99.90
12452;DHT22;6291;48.924;12.204;2022-11-15T07:51:53;4.00;99.90
12452;DHT22;6291;48.924;12.204;2022-11-15T07:57:16;4.30;99.90
12452;DHT22;6291;48.924;12.204;2022-11-15T08:02:38;4.80;99.90
12452;DHT22;6291;48.924;12.204;2022-11-15T08:08:01;4.80;99.90
12452;DHT22;6291;48.924;12.204;2022-11-15T08:13:24;5.80;99.90
12452;DHT22;6291;48.924;12.204;2022-11-15T08:18:47;6.90;99.90
12452;DHT22;6291;48.924;12.204;2022-11-15T08:24:10;6.90;99.90
12452;DHT22;6291;48.924;12.204;2022-11-15T08:29:33;8.30;99.90
12452;DHT22;6291;48.924;12.204;2022-11-15T08:34:56;8.40;99.90
12452;DHT22;6291;48.924;12.204;2022-11-15T08:40:18;7.90;99.90
12452;DHT22;6291;48.924;12.204;2022-11-15T08:45:41;7.80;99.90
12452;DHT22;6291;48.924;12.204;2022-11-15T08:51:03;7.50;99.90
12452;DHT22;6291;48.924;12.204;2022-11-15T08:56:25;7.10;99.90
12452;DHT22;6291;48.924;12.204;2022-11-15T09:01:48;7.10;99.90
12452;DHT22;6291;48.924;12.204;2022-11-15T09:07:11;7.60;99.90
12452;DHT22;6291;48.924;12.204;2022-11-15T09:12:33;7.80;99.90
12452;DHT22;6291;48.924;12.204;2022-11-15T09:17:59;8.40;99.90
12452;DHT22;6291;48.924;12.204;2022-11-15T09:23:21;8.90;99.90
12452;DHT22;6291;48.924;12.204;2022-11-15T09:28:43;9.00;99.90
12452;DHT22;6291;48.924;12.204;2022-11-15T09:34:06;9.20;99.90
12452;DHT22;6291;48.924;12.204;2022-11-15T09:39:28;9.30;99.90
12452;DHT22;6291;48.924;12.204;2022-11-15T09:45:05;9.50;99.90
12452;DHT22;6291;48.924;12.204;2022-11-15T09:50:34;9.90;99.90
12452;DHT22;6291;48.924;12.204;2022-11-15T09:55:47;10.00;99.90
12452;DHT22;6291;48.924;12.204;2022-11-15T10:00:51;10.40;99.90
12452;DHT22;6291;48.924;12.204;2022-11-15T10:06:00;11.20;99.90
12452;DHT22;6291;48.924;12.204;2022-11-15T10:11:07;12.60;99.90
12452;DHT22;6291;48.924;12.204;2022-11-15T10:22:39;14.50;96.40
12452;DHT22;6291;48.924;12.204;2022-11-15T10:27:45;15.00;95.10
12452;DHT22;6291;48.924;12.204;2022-11-15T10:32:50;14.80;94.30
12452;DHT22;6291;48.924;12.204;2022-11-15T10:38:05;14.90;93.30
12452;DHT22;6291;48.924;12.204;2022-11-15T10:43:16;15.20;93.30
12452;DHT22;6291;48.924;12.204;2022-11-15T10:48:23;16.90;88.80
12452;DHT22;6291;48.924;12.204;2022-11-15T10:53:33;17.40;83.20
12452;DHT22;6291;48.924;12.204;2022-11-15T10:58:41;17.00;83.80
12452;DHT22;6291;48.924;12.204;2022-11-15T11:03:58;16.50;86.90
12452;DHT22;6291;48.924;12.204;2022-11-15T11:09:05;16.70;86.20
12452;DHT22;6291;48.924;12.204;2022-11-15T11:14:12;17.10;85.90
12452;DHT22;6291;48.924;12.204;2022-11-15T11:19:39;17.00;85.90
12452;DHT22;6291;48.924;12.204;2022-11-15T11:24:55;17.20;84.90
12452;DHT22;6291;48.924;12.204;2022-11-15T11:30:06;17.10;85.30
12452;DHT22;6291;48.924;12.204;2022-11-15T11:35:13;17.20;84.30
12452;DHT22;6291;48.924;12.204;2022-11-15T11:40:29;18.30;80.90
12452;DHT22;6291;48.924;12.204;2022-11-15T11:45:53;17.50;81.70
12452;DHT22;6291;48.924;12.204;2022-11-15T11:51:05;17.20;83.50
12452;DHT22;6291;48.924;12.204;2022-11-15T11:56:20;16.80;83.80
12452;DHT22;6291;48.924;12.204;2022-11-15T12:01:28;16.30;86.00
12452;DHT22;6291;48.924;12.204;2022-11-15T12:06:38;15.20;89.20
12452;DHT22;6291;48.924;12.204;2022-11-15T12:11:52;14.50;90.80
12452;DHT22;6291;48.924;12.204;2022-11-15T12:16:58;13.40;93.90
12452;DHT22;6291;48.924;12.204;2022-11-15T12:22:04;13.50;95.00
12452;DHT22;6291;48.924;12.204;2022-11-15T12:27:17;13.00;95.90
12452;DHT22;6291;48.924;12.204;2022-11-15T12:32:30;12.70;97.30
12452;DHT22;6291;48.924;12.204;2022-11-15T12:37:47;12.40;99.90
12452;DHT22;6291;48.924;12.204;2022-11-15T12:43:02;12.40;99.90
12452;DHT22;6291;48.924;12.204;2022-11-15T12:48:46;12.30;99.90
12452;DHT22;6291;48.924;12.204;2022-11-15T12:53:50;12.30;99.90
12452;DHT22;6291;48.924;12.204;2022-11-15T12:58:57;12.20;99.90
12452;DHT22;6291;48.924;12.204;2022-11-15T13:04:12;12.30;99.90
12452;DHT22;6291;48.924;12.204;2022-11-15T13:09:50;12.40;99.90
12452;DHT22;6291;48.924;12.204;2022-11-15T13:14:58;12.40;99.90
12452;DHT22;6291;48.924;12.204;2022-11-15T13:20:26;12.50;99.90
12452;DHT22;6291;48.924;12.204;2022-11-15T13:26:03;12.50;99.90
12452;DHT22;6291;48.924;12.204;2022-11-15T13:31:34;12.60;99.90
12452;DHT22;6291;48.924;12.204;2022-11-15T13:36:39;12.70;99.90
12452;DHT22;6291;48.924;12.204;2022-11-15T13:41:46;12.90;99.90
12452;DHT22;6291;48.924;12.204;2022-11-15T13:47:06;13.20;99.90
12452;DHT22;6291;48.924;12.204;2022-11-15T13:52:12;13.70;99.90
12452;DHT22;6291;48.924;12.204;2022-11-15T13:57:21;13.90;99.90
12452;DHT22;6291;48.924;12.204;2022-11-15T14:02:30;16.70;99.90
12452;DHT22;6291;48.924;12.204;2022-11-15T14:07:34;16.20;99.90
12452;DHT22;6291;48.924;12.204;2022-11-15T14:12:50;17.40;94.80
12452;DHT22;6291;48.924;12.204;2022-11-15T14:17:55;18.00;92.10
12452;DHT22;6291;48.924;12.204;2022-11-15T14:23:05;18.60;90.00
12452;DHT22;6291;48.924;12.204;2022-11-15T14:28:15;19.10;90.10
12452;DHT22;6291;48.924;12.204;2022-11-15T14:33:23;19.60;85.80
12452;DHT22;6291;48.924;12.204;2022-11-15T14:38:30;20.10;78.60
12452;DHT22;6291;48.924;12.204;2022-11-15T14:43:34;17.40;76.40
12452;DHT22;6291;48.924;12.204;2022-11-15T14:48:39;17.30;81.80
12452;DHT22;6291;48.924;12.204;2022-11-15T14:53:43;15.10;89.60
12452;DHT22;6291;48.924;12.204;2022-11-15T14:58:47;13.90;93.10
12452;DHT22;6291;48.924;12.204;2022-11-15T15:03:52;13.10;96.50
12452;DHT22;6291;48.924;12.204;2022-11-15T15:08:57;12.60;99.60
12452;DHT22;6291;48.924;12.204;2022-11-15T15:14:01;12.10;99.90
12452;DHT22;6291;48.924;12.204;2022-11-15T15:19:06;11.60;99.90
12452;DHT22;6291;48.924;12.204;2022-11-15T15:24:14;11.20;99.90
12452;DHT22;6291;48.924;12.204;2022-11-15T15:29:17;10.40;99.90
12452;DHT22;6291;48.924;12.204;2022-11-15T15:34:23;10.20;99.90
12452;DHT22;6291;48.924;12.204;2022-11-15T15:39:26;9.80;99.90
12452;DHT22;6291;48.924;12.204;2022-11-15T15:44:29;9.40;99.90
12452;DHT22;6291;48.924;12.204;2022-11-15T15:49:34;9.10;99.90
12452;DHT22;6291;48.924;12.204;2022-11-15T15:54:37;8.90;99.90
12452;DHT22;6291;48.924;12.204;2022-11-15T15:59:41;8.60;99.90
12452;DHT22;6291;48.924;12.204;2022-11-15T16:04:45;8.40;99.90
12452;DHT22;6291;48.924;12.204;2022-11-15T16:09:49;8.40;99.90
12452;DHT22;6291;48.924;12.204;2022-11-15T16:15:05;8.50;99.90
12452;DHT22;6291;48.924;12.204;2022-11-15T16:20:23;8.40;99.90
12452;DHT22;6291;48.924;12.204;2022-11-15T16:25:26;8.10;99.90
12452;DHT22;6291;48.924;12.204;2022-11-15T16:30:30;7.80;99.90
12452;DHT22;6291;48.924;12.204;2022-11-15T16:35:34;7.70;99.90
12452;DHT22;6291;48.924;12.204;2022-11-15T16:40:38;7.30;99.90
12452;DHT22;6291;48.924;12.204;2022-11-15T16:45:41;7.40;99.90
12452;DHT22;6291;48.924;12.204;2022-11-15T16:50:46;7.50;99.90
12452;DHT22;6291;48.924;12.204;2022-11-15T16:55:49;7.30;99.90
12452;DHT22;6291;48.924;12.204;2022-11-15T17:00:53;7.10;99.90
12452;DHT22;6291;48.924;12.204;2022-11-15T17:05:58;7.00;99.90
12452;DHT22;6291;48.924;12.204;2022-11-15T17:16:10;6.80;99.90
12452;DHT22;6291;48.924;12.204;2022-11-15T17:21:17;6.90;99.90
12452;DHT22;6291;48.924;12.204;2022-11-15T17:26:21;6.80;99.90
12452;DHT22;6291;48.924;12.204;2022-11-15T17:31:33;6.70;99.90
12452;DHT22;6291;48.924;12.204;2022-11-15T17:36:38;6.50;99.90
12452;DHT22;6291;48.924;12.204;2022-11-15T17:41:42;6.40;99.90
12452;DHT22;6291;48.924;12.204;2022-11-15T17:46:45;6.40;99.90
12452;DHT22;6291;48.924;12.204;2022-11-15T17:51:50;6.50;99.90
12452;DHT22;6291;48.924;12.204;2022-11-15T17:56:53;6.70;99.90
12452;DHT22;6291;48.924;12.204;2022-11-15T18:01:56;6.70;99.90
12452;DHT22;6291;48.924;12.204;2022-11-15T18:07:01;6.60;99.90
12452;DHT22;6291;48.924;12.204;2022-11-15T18:12:04;6.50;99.90
12452;DHT22;6291;48.924;12.204;2022-11-15T18:17:08;6.30;99.90
12452;DHT22;6291;48.924;12.204;2022-11-15T18:22:12;6.30;99.90
12452;DHT22;6291;48.924;12.204;2022-11-15T18:27:16;6.40;99.90
12452;DHT22;6291;48.924;12.204;2022-11-15T18:32:19;6.50;99.90
12452;DHT22;6291;48.924;12.204;2022-11-15T18:37:24;6.40;99.90
12452;DHT22;6291;48.924;12.204;2022-11-15T18:42:27;6.40;99.90
12452;DHT22;6291;48.924;12.204;2022-11-15T18:47:33;6.50;99.90
12452;DHT22;6291;48.924;12.204;2022-11-15T18:52:39;6.20;99.90
12452;DHT22;6291;48.924;12.204;2022-11-15T18:57:43;6.10;99.90
12452;DHT22;6291;48.924;12.204;2022-11-15T19:02:47;6.10;99.90
12452;DHT22;6291;48.924;12.204;2022-11-15T19:07:52;6.00;99.90
12452;DHT22;6291;48.924;12.204;2022-11-15T19:12:55;6.00;99.90
12452;DHT22;6291;48.924;12.204;2022-11-15T19:17:58;6.00;99.90
12452;DHT22;6291;48.924;12.204;2022-11-15T19:23:04;5.90;99.90
12452;DHT22;6291;48.924;12.204;2022-11-15T19:28:08;6.20;99.90
12452;DHT22;6291;48.924;12.204;2022-11-15T19:33:12;6.30;99.90
12452;DHT22;6291;48.924;12.204;2022-11-15T19:38:17;6.00;99.90
12452;DHT22;6291;48.924;12.204;2022-11-15T19:43:20;5.90;99.90
12452;DHT22;6291;48.924;12.204;2022-11-15T19:48:24;6.20;99.90
12452;DHT22;6291;48.924;12.204;2022-11-15T19:53:29;6.30;99.90
12452;DHT22;6291;48.924;12.204;2022-11-15T19:58:36;6.50;99.90
12452;DHT22;6291;48.924;12.204;2022-11-15T20:03:39;6.70;99.90
12452;DHT22;6291;48.924;12.204;2022-11-15T20:08:45;6.60;99.90
12452;DHT22;6291;48.924;12.204;2022-11-15T20:13:49;6.50;99.90
12452;DHT22;6291;48.924;12.204;2022-11-15T20:18:52;6.60;99.90
12452;DHT22;6291;48.924;12.204;2022-11-15T20:23:57;6.50;99.90
12452;DHT22;6291;48.924;12.204;2022-11-15T20:29:01;6.40;99.90
12452;DHT22;6291;48.924;12.204;2022-11-15T20:34:05;6.40;99.90
12452;DHT22;6291;48.924;12.204;2022-11-15T20:39:10;6.20;99.90
12452;DHT22;6291;48.924;12.204;2022-11-15T20:44:13;6.20;99.90
12452;DHT22;6291;48.924;12.204;2022-11-15T20:49:16;6.00;99.90
12452;DHT22;6291;48.924;12.204;2022-11-15T20:54:21;5.90;99.90
12452;DHT22;6291;48.924;12.204;2022-11-15T20:59:25;5.70;99.90
12452;DHT22;6291;48.924;12.204;2022-11-15T21:04:28;5.70;99.90
12452;DHT22;6291;48.924;12.204;2022-11-15T21:09:33;5.70;99.90
12452;DHT22;6291;48.924;12.204;2022-11-15T21:14:53;5.70;99.90
12452;DHT22;6291;48.924;12.204;2022-11-15T21:19:57;5.60;99.90
12452;DHT22;6291;48.924;12.204;2022-11-15T21:25:02;5.50;99.90
12452;DHT22;6291;48.924;12.204;2022-11-15T21:30:06;5.50;99.90
12452;DHT22;6291;48.924;12.204;2022-11-15T21:35:10;5.50;99.90
12452;DHT22;6291;48.924;12.204;2022-11-15T21:40:16;5.50;99.90
12452;DHT22;6291;48.924;12.204;2022-11-15T21:45:20;5.50;99.90
12452;DHT22;6291;48.924;12.204;2022-11-15T21:50:23;5.50;99.90
12452;DHT22;6291;48.924;12.204;2022-11-15T21:55:28;5.50;99.90
12452;DHT22;6291;48.924;12.204;2022-11-15T22:00:31;5.40;99.90
12452;DHT22;6291;48.924;12.204;2022-11-15T22:05:49;5.10;99.90
12452;DHT22;6291;48.924;12.204;2022-11-15T22:10:54;5.10;99.90
12452;DHT22;6291;48.924;12.204;2022-11-15T22:15:59;5.10;99.90
12452;DHT22;6291;48.924;12.204;2022-11-15T22:21:05;5.00;99.90
12452;DHT22;6291;48.924;12.204;2022-11-15T22:26:12;5.00;99.90
12452;DHT22;6291;48.924;12.204;2022-11-15T22:31:23;5.10;99.90
12452;DHT22;6291;48.924;12.204;2022-11-15T22:36:26;5.00;99.90
12452;DHT22;6291;48.924;12.204;2022-11-15T22:41:49;5.10;99.90
12452;DHT22;6291;48.924;12.204;2022-11-15T22:46:52;5.00;99.90
12452;DHT22;6291;48.924;12.204;2022-11-15T22:51:55;5.20;99.90
12452;DHT22;6291;48.924;12.204;2022-11-15T22:57:00;5.30;99.90
12452;DHT22;6291;48.924;12.204;2022-11-15T23:02:05;5.30;99.90
12452;DHT22;6291;48.924;12.204;2022-11-15T23:07:08;5.40;99.90
12452;DHT22;6291;48.924;12.204;2022-11-15T23:12:13;5.40;99.90
12452;DHT22;6291;48.924;12.204;2022-11-15T23:17:33;5.50;99.90
12452;DHT22;6291;48.924;12.204;2022-11-15T23:22:37;5.50;99.90
12452;DHT22;6291;48.924;12.204;2022-11-15T23:27:50;3.60;99.90
12452;DHT22;6291;48.924;12.204;2022-11-15T23:32:54;5.30;99.90
12452;DHT22;6291;48.924;12.204;2022-11-15T23:38:14;5.30;99.90
12452;DHT22;6291;48.924;12.204;2022-11-15T23:43:20;5.40;99.90
12452;DHT22;6291;48.924;12.204;2022-11-15T23:48:24;5.40;99.90
12452;DHT22;6291;48.924;12.204;2022-11-15T23:53:28;5.40;99.90
12452;DHT22;6291;48.924;12.204;2022-11-15T23:58:33;5.50;99.90
